createdAt,value
2019-06-10T00:00:25.713Z,19.82
2019-06-10T00:02:56.080Z,18.70
2019-06-10T00:05:26.601Z,20.55
2019-06-10T00:07:57.984Z,16.82
2019-06-10T00:10:31.025Z,20.70
2019-06-10T00:13:03.412Z,21.12
2019-06-10T00:15:32.923Z,20.27
2019-06-10T00:18:26.639Z,18.67
2019-06-10T00:20:35.363Z,20.43
2019-06-10T00:23:06.831Z,17.77
2019-06-10T00:25:37.683Z,27.45
2019-06-10T00:28:09.529Z,17.95
2019-06-10T00:30:41.122Z,15.55
2019-06-10T00:33:12.771Z,19.82
2019-06-10T00:35:43.498Z,22.35
2019-06-10T00:38:14.987Z,21.45
2019-06-10T00:40:46.932Z,16.00
2019-06-10T00:43:17.372Z,18.77
2019-06-10T00:45:47.739Z,17.12
2019-06-10T00:48:26.268Z,17.10
2019-06-10T00:50:51.792Z,18.17
2019-06-10T00:53:22.206Z,18.70
2019-06-10T00:55:52.637Z,20.20
2019-06-10T00:58:23.021Z,20.68
2019-06-10T01:00:53.453Z,18.65
2019-06-10T01:03:23.823Z,22.98
2019-06-10T01:05:54.253Z,17.90
2019-06-10T01:08:24.733Z,19.05
2019-06-10T01:10:55.172Z,20.82
2019-06-10T01:13:25.610Z,22.82
2019-06-10T01:15:55.993Z,19.07
2019-06-10T01:18:35.624Z,19.95
2019-06-10T01:20:58.420Z,21.70
2019-06-10T01:23:30.940Z,29.05
2019-06-10T01:26:01.542Z,26.70
2019-06-10T01:28:32.273Z,25.33
2019-06-10T01:31:02.637Z,25.75
2019-06-10T01:33:33.050Z,27.00
2019-06-10T01:36:03.513Z,29.60
2019-06-10T01:38:33.889Z,32.80
2019-06-10T01:41:04.320Z,32.65
2019-06-10T01:43:34.701Z,37.53
2019-06-10T01:46:06.423Z,33.83
2019-06-10T01:48:44.187Z,28.30
2019-06-10T01:51:11.887Z,29.23
2019-06-10T01:53:42.721Z,29.77
2019-06-10T01:56:15.440Z,27.87
2019-06-10T01:58:45.173Z,26.93
2019-06-10T02:01:24.660Z,30.62
2019-06-10T02:03:55.021Z,28.52
2019-06-10T02:06:26.004Z,34.15
2019-06-10T02:09:09.637Z,31.57
2019-06-10T02:11:41.441Z,27.15
2019-06-10T02:14:15.962Z,29.57
2019-06-10T02:16:44.313Z,25.37
2019-06-10T02:19:16.818Z,28.42
2019-06-10T02:21:46.776Z,25.52
2019-06-10T02:24:17.702Z,28.30
2019-06-10T02:26:51.481Z,21.97
2019-06-10T02:29:22.230Z,29.00
2019-06-10T02:31:53.293Z,22.48
2019-06-10T02:34:27.353Z,24.75
2019-06-10T02:36:55.829Z,27.95
2019-06-10T02:39:33.769Z,24.23
2019-06-10T02:41:59.907Z,30.65
2019-06-10T02:44:34.305Z,25.48
2019-06-10T02:47:03.470Z,27.60
2019-06-10T02:49:56.348Z,27.67
2019-06-10T02:52:22.816Z,30.08
2019-06-10T02:54:53.509Z,31.50
2019-06-10T02:57:30.460Z,31.90
2019-06-10T02:59:56.730Z,27.35
2019-06-10T03:02:31.522Z,35.30
2019-06-10T03:04:59.181Z,30.68
2019-06-10T03:07:32.636Z,30.85
2019-06-10T03:10:04.726Z,30.05
2019-06-10T03:12:33.706Z,30.82
2019-06-10T03:15:05.744Z,30.95
2019-06-10T03:17:36.179Z,32.42
2019-06-10T03:20:07.256Z,27.70
2019-06-10T03:22:37.684Z,26.07
2019-06-10T03:25:08.256Z,28.12
2019-06-10T03:27:42.263Z,27.73
2019-06-10T03:30:16.950Z,29.72
2019-06-10T03:32:46.891Z,31.37
2019-06-10T03:35:17.350Z,34.03
2019-06-10T03:37:48.250Z,30.50
2019-06-10T03:40:18.788Z,33.83
2019-06-10T03:42:49.205Z,34.03
2019-06-10T03:45:21.152Z,31.62
2019-06-10T03:47:52.709Z,31.60
2019-06-10T03:50:25.602Z,29.33
2019-06-10T03:52:55.341Z,28.20
2019-06-10T03:55:27.953Z,41.13
2019-06-10T03:57:57.832Z,32.45
2019-06-10T04:00:28.936Z,35.70
2019-06-10T04:02:59.654Z,31.07
2019-06-10T04:05:30.029Z,45.33
2019-06-10T04:08:02.126Z,32.73
2019-06-10T04:10:33.656Z,44.42
2019-06-10T04:13:04.101Z,36.90
2019-06-10T04:15:34.565Z,36.05
2019-06-10T04:18:05.391Z,33.48
2019-06-10T04:20:35.834Z,34.78
2019-06-10T04:23:06.296Z,39.20
2019-06-10T04:25:39.653Z,33.92
2019-06-10T04:28:12.375Z,33.48
2019-06-10T04:30:43.243Z,40.52
2019-06-10T04:33:13.941Z,31.87
2019-06-10T04:35:44.369Z,24.55
2019-06-10T04:38:14.738Z,25.57
2019-06-10T04:40:45.184Z,23.32
2019-06-10T04:43:15.544Z,28.98
2019-06-10T04:45:46.023Z,28.62
2019-06-10T04:48:16.456Z,31.12
2019-06-10T04:50:46.943Z,32.23
2019-06-10T04:53:18.616Z,33.18
2019-06-10T04:55:49.361Z,39.30
2019-06-10T04:58:21.517Z,33.85
2019-06-10T05:00:52.893Z,33.60
2019-06-10T05:03:24.937Z,30.25
2019-06-10T05:05:55.309Z,26.27
2019-06-10T05:08:26.935Z,35.33
2019-06-10T05:10:57.757Z,26.30
2019-06-10T05:13:28.659Z,24.15
2019-06-10T05:16:00.326Z,24.47
2019-06-10T05:18:32.722Z,25.50
2019-06-10T05:21:03.103Z,28.32
2019-06-10T05:23:33.714Z,25.97
2019-06-10T05:26:04.130Z,34.08
2019-06-10T05:28:34.723Z,27.50
2019-06-10T05:31:05.146Z,26.73
2019-06-10T05:33:35.527Z,26.70
2019-06-10T05:36:05.950Z,28.10
2019-06-10T05:38:36.402Z,31.10
2019-06-10T05:41:06.818Z,24.72
2019-06-10T05:43:37.243Z,28.27
2019-06-10T05:46:07.681Z,30.37
2019-06-10T05:48:38.183Z,25.30
2019-06-10T05:51:08.597Z,25.65
2019-06-10T05:53:38.979Z,25.52
2019-06-10T05:56:09.404Z,23.10
2019-06-10T05:58:39.782Z,18.35
2019-06-10T06:01:10.205Z,29.05
2019-06-10T06:03:40.574Z,21.50
2019-06-10T06:06:12.469Z,25.35
2019-06-10T06:11:13.601Z,20.17
2019-06-10T06:13:44.027Z,25.50
2019-06-10T06:16:14.391Z,21.60
2019-06-10T06:18:44.822Z,24.50
2019-06-10T06:21:25.746Z,23.50
2019-06-10T06:23:47.277Z,22.60
2019-06-10T06:26:17.645Z,21.00
2019-06-10T06:28:48.077Z,19.98
2019-06-10T06:31:18.451Z,22.55
2019-06-10T06:33:48.893Z,28.20
2019-06-10T06:36:19.275Z,37.50
2019-06-10T06:38:52.852Z,21.33
2019-06-10T06:41:22.847Z,37.50
2019-06-10T06:43:53.414Z,23.73
2019-06-10T06:46:23.797Z,23.22
2019-06-10T06:48:54.166Z,20.17
2019-06-10T06:51:35.983Z,24.02
2019-06-10T06:53:56.597Z,19.07
2019-06-10T06:56:27.027Z,22.45
2019-06-10T06:58:58.162Z,24.75
2019-06-10T07:01:29.685Z,20.15
2019-06-10T07:04:02.676Z,22.17
2019-06-10T07:06:34.528Z,14.95
2019-06-10T07:09:08.350Z,21.85
2019-06-10T07:11:44.389Z,22.25
2019-06-10T07:14:13.340Z,14.70
2019-06-10T07:16:46.786Z,16.62
2019-06-10T07:19:18.713Z,17.23
2019-06-10T07:22:05.340Z,18.12
2019-06-10T07:24:23.107Z,15.48
2019-06-10T07:26:55.046Z,16.80
2019-06-10T07:29:25.229Z,18.50
2019-06-10T07:31:55.646Z,22.15
2019-06-10T07:34:26.077Z,11.85
2019-06-10T07:36:56.510Z,21.65
2019-06-10T07:39:26.932Z,16.00
2019-06-10T07:41:57.365Z,16.93
2019-06-10T07:44:27.766Z,19.77
2019-06-10T07:46:59.212Z,15.00
2019-06-10T07:49:29.588Z,14.70
2019-06-10T07:52:14.964Z,17.75
2019-06-10T07:54:33.291Z,14.23
2019-06-10T07:57:04.053Z,21.75
2019-06-10T07:59:35.405Z,11.97
2019-06-10T08:02:06.048Z,13.85
2019-06-10T08:04:37.779Z,16.67
2019-06-10T08:07:08.596Z,16.95
2019-06-10T08:09:39.113Z,16.27
2019-06-10T08:12:09.582Z,14.58
2019-06-10T08:14:42.734Z,13.32
2019-06-10T08:17:13.595Z,14.93
2019-06-10T08:19:54.322Z,12.23
2019-06-10T08:25:04.795Z,13.50
2019-06-10T08:27:36.576Z,15.45
2019-06-10T08:30:21.231Z,11.93
2019-06-10T08:32:45.264Z,12.68
2019-06-10T08:35:14.006Z,9.58
2019-06-10T08:37:45.928Z,13.20
2019-06-10T08:40:16.581Z,11.33
2019-06-10T08:42:48.749Z,13.78
2019-06-10T08:45:19.097Z,10.43
2019-06-10T08:47:49.502Z,11.83
2019-06-10T08:50:22.273Z,11.65
2019-06-10T08:53:07.343Z,10.38
2019-06-10T08:57:54.063Z,11.63
2019-06-10T09:00:25.834Z,13.93
2019-06-10T09:02:56.257Z,13.30
2019-06-10T09:05:26.796Z,10.70
2019-06-10T09:07:57.153Z,10.18
2019-06-10T09:10:27.705Z,11.12
2019-06-10T09:12:58.078Z,15.28
2019-06-10T09:15:28.508Z,18.25
2019-06-10T09:17:58.892Z,10.82
2019-06-10T09:20:29.651Z,10.28
2019-06-10T09:23:14.974Z,21.85
2019-06-10T09:28:03.085Z,10.00
2019-06-10T09:30:33.566Z,9.50
2019-06-10T09:33:04.831Z,14.40
2019-06-10T09:35:35.470Z,12.53
2019-06-10T09:38:05.864Z,13.83
2019-06-10T09:41:00.922Z,15.08
2019-06-10T09:43:25.181Z,14.53
2019-06-10T09:45:56.625Z,16.62
2019-06-10T09:48:28.726Z,12.13
2019-06-10T09:50:59.401Z,13.40
2019-06-10T09:53:41.256Z,10.70
2019-06-10T09:56:04.832Z,10.88
2019-06-10T09:58:35.269Z,11.25
2019-06-10T10:01:07.764Z,10.35
2019-06-10T10:03:41.055Z,12.40
2019-06-10T10:08:45.976Z,10.95
2019-06-10T10:11:15.374Z,21.25
2019-06-10T10:13:49.387Z,17.80
2019-06-10T10:16:18.769Z,8.05
2019-06-10T10:18:56.547Z,8.45
2019-06-10T10:24:06.344Z,12.98
2019-06-10T10:28:56.898Z,13.30
2019-06-10T10:33:54.963Z,9.15
2019-06-10T10:36:25.365Z,11.63
2019-06-10T10:38:55.740Z,10.15
2019-06-10T10:41:26.273Z,9.05
2019-06-10T10:43:58.519Z,11.80
2019-06-10T10:48:58.063Z,13.00
2019-06-10T10:51:28.469Z,11.88
2019-06-10T10:54:20.717Z,14.73
2019-06-10T10:56:35.816Z,16.27
2019-06-10T10:59:06.252Z,10.13
2019-06-10T11:01:36.710Z,19.07
2019-06-10T11:04:07.249Z,12.13
2019-06-10T11:06:37.597Z,10.15
2019-06-10T11:09:09.534Z,17.87
2019-06-10T11:11:43.109Z,13.72
2019-06-10T11:14:15.239Z,14.60
2019-06-10T11:16:47.034Z,17.67
2019-06-10T11:21:47.453Z,16.48
2019-06-10T11:24:32.818Z,14.60
2019-06-10T11:29:21.068Z,14.90
2019-06-10T11:31:55.048Z,19.12
2019-06-10T11:36:55.096Z,21.57
2019-06-10T11:41:56.022Z,17.87
2019-06-10T11:46:59.484Z,19.55
2019-06-10T11:51:59.487Z,19.92
2019-06-10T11:56:59.982Z,20.05
2019-06-10T11:59:32.746Z,14.87
2019-06-10T12:04:33.881Z,17.27
2019-06-10T12:07:04.304Z,17.07
2019-06-10T12:09:34.746Z,14.18
2019-06-10T12:12:06.416Z,13.53
2019-06-10T12:14:36.836Z,24.55
2019-06-10T12:17:40.480Z,16.52
2019-06-10T12:22:09.381Z,19.23
2019-06-10T12:24:39.802Z,13.40
2019-06-10T12:27:10.153Z,20.55
2019-06-10T12:29:42.284Z,15.40
2019-06-10T12:32:13.664Z,19.15
2019-06-10T12:34:46.335Z,11.73
2019-06-10T12:39:46.698Z,14.13
2019-06-10T12:42:17.137Z,15.05
2019-06-10T12:44:47.514Z,11.95
2019-06-10T12:47:17.869Z,18.95
2019-06-10T12:49:48.298Z,12.20
2019-06-10T12:52:18.661Z,13.55
2019-06-10T12:54:49.090Z,12.33
2019-06-10T12:57:19.535Z,13.08
2019-06-10T12:59:52.133Z,15.60
2019-06-10T13:04:53.613Z,14.35
2019-06-10T13:07:24.744Z,12.30
2019-06-10T13:09:57.795Z,18.45
2019-06-10T13:12:28.594Z,17.27
2019-06-10T13:14:59.975Z,12.80
2019-06-10T13:20:01.997Z,13.85
2019-06-10T13:25:02.976Z,19.90
2019-06-10T13:27:33.329Z,18.07
2019-06-10T13:30:08.347Z,22.15
2019-06-10T13:32:39.017Z,13.60
2019-06-10T13:35:12.286Z,14.13
2019-06-10T13:37:42.856Z,12.85
2019-06-10T13:42:43.827Z,14.78
2019-06-10T13:45:15.067Z,18.48
2019-06-10T13:47:45.493Z,14.70
2019-06-10T13:50:19.279Z,11.63
2019-06-10T13:52:49.157Z,19.57
2019-06-10T13:55:22.222Z,10.23
2019-06-10T13:57:53.340Z,17.50
2019-06-10T14:02:55.121Z,11.70
2019-06-10T14:05:25.575Z,15.70
2019-06-10T14:07:56.021Z,16.02
2019-06-10T14:10:26.493Z,11.68
2019-06-10T14:12:56.926Z,16.57
2019-06-10T14:15:27.309Z,14.23
2019-06-10T14:17:57.757Z,19.30
2019-06-10T14:20:28.133Z,13.28
2019-06-10T14:22:58.547Z,19.82
2019-06-10T14:25:28.929Z,25.35
2019-06-10T14:27:59.329Z,14.28
2019-06-10T14:30:32.196Z,13.03
2019-06-10T14:35:33.379Z,21.33
2019-06-10T14:38:05.165Z,22.55
2019-06-10T14:43:06.277Z,24.25
2019-06-10T14:45:36.956Z,15.05
2019-06-10T14:48:08.755Z,17.92
2019-06-10T14:50:39.557Z,10.88
2019-06-10T14:53:11.100Z,20.55
2019-06-10T14:58:16.372Z,12.75
2019-06-10T15:03:19.742Z,12.65
2019-06-10T15:08:19.660Z,13.90
2019-06-10T15:10:52.515Z,19.48
2019-06-10T15:15:53.502Z,15.32
2019-06-10T15:18:24.154Z,23.73
2019-06-10T15:20:54.728Z,22.40
2019-06-10T15:23:25.172Z,16.32
2019-06-10T15:25:57.164Z,18.48
2019-06-10T15:30:57.097Z,21.10
2019-06-10T15:33:27.522Z,13.85
2019-06-10T15:35:57.976Z,14.98
2019-06-10T15:38:28.431Z,22.25
2019-06-10T15:40:58.869Z,17.92
2019-06-10T15:43:29.230Z,19.37
2019-06-10T15:45:59.668Z,16.45
2019-06-10T15:48:30.068Z,13.70
2019-06-10T15:51:02.860Z,14.07
2019-06-10T15:56:14.493Z,21.82
2019-06-10T16:01:06.054Z,18.05
2019-06-10T16:03:36.459Z,17.15
2019-06-10T16:06:06.891Z,18.15
2019-06-10T16:08:37.250Z,17.45
2019-06-10T16:11:07.672Z,20.37
2019-06-10T16:13:38.198Z,17.15
2019-06-10T16:16:08.576Z,24.12
2019-06-10T16:18:42.165Z,24.80
2019-06-10T16:23:43.184Z,23.10
2019-06-10T16:26:14.863Z,16.82
2019-06-10T16:31:16.619Z,17.42
2019-06-10T16:33:49.692Z,19.70
2019-06-10T16:36:21.868Z,18.50
2019-06-10T16:41:25.870Z,19.25
2019-06-10T16:46:24.913Z,17.23
2019-06-10T16:48:55.281Z,20.55
2019-06-10T16:51:25.862Z,27.93
2019-06-10T16:53:56.281Z,26.10
2019-06-10T16:56:27.842Z,28.25
2019-06-10T17:01:30.044Z,19.80
2019-06-10T17:04:01.238Z,20.68
2019-06-10T17:06:32.703Z,24.02
2019-06-10T17:09:04.659Z,26.60
2019-06-10T17:11:36.779Z,17.95
2019-06-10T17:14:07.258Z,19.48
2019-06-10T17:16:40.552Z,26.12
2019-06-10T17:21:39.233Z,23.00
2019-06-10T17:24:09.701Z,22.25
2019-06-10T17:26:42.427Z,18.48
2019-06-10T17:31:42.551Z,22.58
2019-06-10T17:34:13.609Z,19.70
2019-06-10T17:36:43.977Z,18.52
2019-06-10T17:39:14.411Z,17.70
2019-06-10T17:41:44.795Z,16.35
2019-06-10T17:44:15.248Z,17.27
2019-06-10T17:46:45.793Z,21.20
2019-06-10T17:49:16.231Z,19.77
2019-06-10T17:51:46.649Z,22.15
2019-06-10T17:54:17.051Z,17.77
2019-06-10T17:56:47.484Z,16.62
2019-06-10T17:59:18.018Z,20.05
2019-06-10T18:01:48.446Z,15.72
2019-06-10T18:04:18.811Z,16.15
2019-06-10T18:06:49.261Z,18.57
2019-06-10T18:09:19.617Z,21.17
2019-06-10T18:11:50.055Z,18.10
2019-06-10T18:14:22.772Z,20.88
2019-06-10T18:19:23.971Z,15.35
2019-06-10T18:24:26.275Z,16.42
2019-06-10T18:29:25.521Z,21.25
2019-06-10T18:31:57.195Z,19.42
2019-06-10T18:34:27.745Z,18.30
2019-06-10T18:36:59.112Z,20.43
2019-06-10T18:39:29.706Z,17.02
2019-06-10T18:42:00.109Z,21.50
2019-06-10T18:44:33.911Z,20.05
2019-06-10T18:47:03.072Z,20.12
2019-06-10T18:49:35.813Z,23.87
2019-06-10T18:52:05.626Z,24.50
2019-06-10T18:54:37.276Z,19.82
2019-06-10T18:57:07.981Z,18.27
2019-06-10T18:59:39.542Z,17.30
2019-06-10T19:02:12.215Z,24.15
2019-06-10T19:04:43.522Z,26.60
2019-06-10T19:07:14.631Z,16.00
2019-06-10T19:09:47.950Z,16.30
2019-06-10T19:12:18.257Z,16.32
2019-06-10T19:14:48.626Z,20.48
2019-06-10T19:17:19.042Z,18.48
2019-06-10T19:19:49.410Z,15.00
2019-06-10T19:22:22.393Z,16.90
2019-06-10T19:24:52.946Z,14.63
2019-06-10T19:27:25.256Z,24.57
2019-06-10T19:29:55.634Z,15.78
2019-06-10T19:32:26.206Z,17.75
2019-06-10T19:34:56.675Z,17.90
2019-06-10T19:37:27.489Z,21.87
2019-06-10T19:39:57.921Z,19.62
2019-06-10T19:42:28.337Z,18.62
2019-06-10T19:44:58.745Z,18.17
2019-06-10T19:47:32.930Z,21.05
2019-06-10T19:50:03.148Z,15.30
2019-06-10T19:52:35.302Z,16.25
2019-06-10T19:55:07.589Z,13.78
2019-06-10T19:57:37.952Z,13.65
2019-06-10T20:00:12.466Z,24.25
2019-06-10T20:02:46.526Z,18.65
2019-06-10T20:05:15.256Z,19.48
2019-06-10T20:07:50.298Z,19.10
2019-06-10T20:10:18.161Z,19.20
2019-06-10T20:12:48.605Z,22.58
2019-06-10T20:15:24.368Z,18.60
2019-06-10T20:17:54.810Z,20.25
2019-06-10T20:20:25.261Z,19.17
2019-06-10T20:22:57.508Z,14.78
2019-06-10T20:25:27.719Z,19.80
2019-06-10T20:27:58.138Z,23.10
2019-06-10T20:30:29.416Z,23.45
2019-06-10T20:33:03.022Z,11.70
2019-06-10T20:35:32.633Z,29.37
2019-06-10T20:38:05.094Z,24.60
2019-06-10T20:40:35.764Z,19.12
2019-06-10T20:45:37.644Z,19.42
2019-06-10T20:48:08.474Z,19.53
2019-06-10T20:50:39.087Z,22.60
2019-06-10T20:53:17.447Z,16.55
2019-06-10T20:55:49.765Z,20.65
2019-06-10T20:58:13.880Z,19.32
2019-06-10T21:00:51.022Z,18.20
2019-06-10T21:03:16.412Z,19.73
2019-06-10T21:05:50.125Z,22.37
2019-06-10T21:08:22.653Z,21.80
2019-06-10T21:10:54.540Z,18.57
2019-06-10T21:13:26.308Z,24.65
2019-06-10T21:15:59.196Z,14.83
2019-06-10T21:18:28.745Z,19.52
2019-06-10T21:20:59.117Z,17.37
2019-06-10T21:23:29.537Z,19.20
2019-06-10T21:26:02.497Z,19.27
2019-06-10T21:28:32.663Z,31.30
2019-06-10T21:31:06.361Z,15.00
2019-06-10T21:33:38.062Z,19.92
2019-06-10T21:36:08.440Z,22.95
2019-06-10T21:38:38.845Z,19.95
2019-06-10T21:41:09.275Z,26.90
2019-06-10T21:43:42.504Z,23.18
2019-06-10T21:46:13.213Z,19.23
2019-06-10T21:51:14.865Z,13.85
2019-06-10T21:53:46.515Z,18.00
2019-06-10T21:58:46.930Z,18.02
2019-06-10T22:01:17.399Z,16.85
2019-06-10T22:03:53.018Z,21.48
2019-06-10T22:06:19.806Z,18.95
2019-06-10T22:08:52.757Z,18.05
2019-06-10T22:11:23.332Z,24.23
2019-06-10T22:13:56.120Z,16.70
2019-06-10T22:16:26.101Z,15.13
2019-06-10T22:18:56.463Z,21.90
2019-06-10T22:21:26.892Z,23.00
2019-06-10T22:23:57.260Z,23.80
2019-06-10T22:26:28.969Z,19.90
2019-06-10T22:28:59.327Z,26.52
2019-06-10T22:31:29.748Z,22.13
2019-06-10T22:34:00.109Z,18.55
2019-06-10T22:36:32.570Z,26.35
2019-06-10T22:39:03.281Z,26.15
2019-06-10T22:41:35.503Z,28.50
2019-06-10T22:44:05.868Z,18.45
2019-06-10T22:46:36.285Z,25.80
2019-06-10T22:49:06.643Z,22.27
2019-06-10T22:51:37.060Z,26.40
2019-06-10T22:54:07.443Z,18.07
2019-06-10T22:56:37.871Z,21.70
2019-06-10T22:59:08.309Z,23.35
2019-06-10T23:01:38.793Z,16.42
2019-06-10T23:04:09.209Z,15.05
2019-06-10T23:06:42.877Z,17.60
2019-06-10T23:09:14.397Z,13.10
2019-06-10T23:11:46.364Z,18.10
2019-06-10T23:14:16.993Z,21.05
2019-06-10T23:16:48.778Z,17.52
2019-06-10T23:21:49.404Z,16.48
2019-06-10T23:24:22.580Z,20.82
2019-06-10T23:26:53.766Z,18.57
2019-06-10T23:29:24.917Z,15.03
2019-06-10T23:32:01.777Z,15.45
2019-06-10T23:34:27.501Z,16.75
2019-06-10T23:36:58.749Z,18.82
2019-06-10T23:39:33.216Z,14.23
2019-06-10T23:42:04.348Z,23.47
2019-06-10T23:44:34.819Z,18.25
2019-06-10T23:47:05.269Z,25.20
2019-06-10T23:49:35.696Z,16.02
2019-06-10T23:52:06.100Z,18.52
2019-06-10T23:54:36.519Z,13.62
2019-06-10T23:57:07.046Z,13.80
2019-06-10T23:59:37.484Z,28.02
